Time;durP1;ratioP1;P1;durP2;ratioP2;P2;SDS_P1;SDS_P2;PMS_P1;PMS_P2;Temp;Humidity;BMP_temperature;BMP_pressure;BME280_temperature;BME280_humidity;BME280_pressure;Samples;Min_cycle;Max_cycle;Signal;HPM_P1;HPM_P2
2023/10/02 00:01:36;;;;;;;5.70;2.72;;;23.60;60.30;;;;;;7665439;22;81233;-64
2023/10/02 00:04:37;;;;;;;4.40;2.85;;;23.60;60.30;;;;;;7678086;22;80286;-64
2023/10/02 00:07:37;;;;;;;5.53;3.35;;;23.60;60.30;;;;;;7678952;22;80632;-66
2023/10/02 00:10:40;;;;;;;4.97;2.67;;;23.60;60.20;;;;;;7679086;22;80930;-64
2023/10/02 00:13:41;;;;;;;5.50;2.70;;;23.60;60.30;;;;;;7679034;22;81012;-64
2023/10/02 00:16:42;;;;;;;4.78;2.50;;;23.60;60.40;;;;;;7680041;22;81291;-66
2023/10/02 00:19:44;;;;;;;5.20;3.08;;;23.60;60.40;;;;;;7679639;22;80022;-59
2023/10/02 00:22:44;;;;;;;5.28;2.72;;;23.60;60.40;;;;;;7679038;22;80095;-58
2023/10/02 00:25:52;;;;;;;5.00;2.88;;;23.60;60.40;;;;;;7678765;22;80812;-57
2023/10/02 00:28:52;;;;;;;4.65;2.95;;;23.60;60.60;;;;;;7678835;22;80415;-59
2023/10/02 00:31:53;;;;;;;6.63;2.78;;;23.60;60.60;;;;;;7650859;22;83005;-59
2023/10/02 00:34:53;;;;;;;4.10;2.75;;;23.60;60.60;;;;;;7678658;22;80358;-58
2023/10/02 00:37:54;;;;;;;4.28;2.72;;;23.60;60.60;;;;;;7679076;22;80564;-51
2023/10/02 00:40:54;;;;;;;5.50;2.33;;;23.60;60.50;;;;;;7680046;22;80851;-52
2023/10/02 00:43:55;;;;;;;4.57;2.50;;;23.60;60.50;;;;;;7653056;22;80743;-53
2023/10/02 00:46:57;;;;;;;6.93;2.70;;;23.60;60.60;;;;;;7679409;22;80823;-49
2023/10/02 00:50:07;;;;;;;5.57;2.88;;;23.60;60.60;;;;;;7679455;22;80875;-49
2023/10/02 00:53:07;;;;;;;5.30;3.00;;;23.60;60.60;;;;;;7678903;22;80242;-52
2023/10/02 00:56:20;;;;;;;3.05;2.38;;;23.60;60.60;;;;;;7679412;22;80808;-58
2023/10/02 00:59:23;;;;;;;8.18;3.05;;;23.60;60.50;;;;;;7676458;22;84887;-58
2023/10/02 01:02:23;;;;;;;5.63;2.75;;;23.60;60.60;;;;;;7678724;22;81044;-58
2023/10/02 01:05:30;;;;;;;6.60;3.40;;;23.60;60.80;;;;;;7651229;22;83102;-58
2023/10/02 01:08:42;;;;;;;5.40;2.65;;;23.60;60.70;;;;;;7652644;22;83292;-58
2023/10/02 01:11:45;;;;;;;4.55;2.42;;;23.60;60.70;;;;;;7678719;22;81798;-58
2023/10/02 01:14:52;;;;;;;3.80;2.33;;;23.60;60.70;;;;;;7652160;22;81832;-58
2023/10/02 01:17:52;;;;;;;6.15;2.53;;;23.60;60.70;;;;;;7651186;22;83275;-58
2023/10/02 01:20:53;;;;;;;6.47;3.15;;;23.60;60.70;;;;;;7679624;22;80417;-58
2023/10/02 01:24:09;;;;;;;5.07;2.78;;;23.60;60.80;;;;;;7652894;22;83949;-59
2023/10/02 01:27:11;;;;;;;4.00;2.53;;;23.60;60.70;;;;;;7653398;22;83537;-58
2023/10/02 01:30:21;;;;;;;5.68;2.85;;;23.60;60.70;;;;;;7679473;22;80817;-58
2023/10/02 01:33:22;;;;;;;3.92;2.78;;;23.60;60.70;;;;;;7680031;22;80942;-60
2023/10/02 01:36:28;;;;;;;4.75;2.67;;;23.60;60.70;;;;;;7652354;22;83364;-58
2023/10/02 01:39:28;;;;;;;3.63;2.33;;;23.60;60.70;;;;;;7680580;22;80133;-57
2023/10/02 01:42:29;;;;;;;4.85;2.60;;;23.60;60.70;;;;;;7679401;22;80868;-58
2023/10/02 01:45:34;;;;;;;4.57;2.55;;;23.60;60.70;;;;;;7680423;22;80459;-57
2023/10/02 01:48:40;;;;;;;4.97;2.90;;;23.60;60.80;;;;;;7679612;22;80214;-49
2023/10/02 01:51:41;;;;;;;4.10;2.42;;;23.50;60.70;;;;;;7653954;22;80423;-51
2023/10/02 01:54:44;;;;;;;4.82;2.38;;;23.60;60.70;;;;;;7680088;22;81483;-51
2023/10/02 01:57:45;;;;;;;5.35;2.63;;;23.50;60.70;;;;;;7680855;22;80910;-51
2023/10/02 02:00:45;;;;;;;5.95;2.75;;;23.50;60.70;;;;;;7680156;22;80607;-50
2023/10/02 02:03:49;;;;;;;4.22;2.90;;;23.50;60.70;;;;;;7653763;22;82128;-53
2023/10/02 02:06:52;;;;;;;4.38;2.42;;;23.50;60.70;;;;;;7652660;22;87170;-51
2023/10/02 02:09:53;;;;;;;4.55;2.83;;;23.50;60.70;;;;;;7680037;22;80754;-51
2023/10/02 02:12:55;;;;;;;5.10;2.58;;;23.50;60.70;;;;;;7651006;22;82947;-50
2023/10/02 02:16:07;;;;;;;3.75;2.20;;;23.50;60.70;;;;;;7679527;22;80507;-51
2023/10/02 02:19:07;;;;;;;5.45;2.92;;;23.60;60.80;;;;;;7679585;22;80555;-53
2023/10/02 02:22:09;;;;;;;3.92;2.40;;;23.50;60.70;;;;;;7676153;22;83213;-53
2023/10/02 02:25:09;;;;;;;4.90;2.45;;;23.50;60.70;;;;;;7652779;22;81717;-52
2023/10/02 02:28:10;;;;;;;3.20;2.33;;;23.50;60.80;;;;;;7679826;22;80263;-52
2023/10/02 02:31:29;;;;;;;5.65;2.30;;;23.50;60.70;;;;;;7679298;22;80217;-51
2023/10/02 02:34:30;;;;;;;5.13;2.95;;;23.50;60.80;;;;;;7678938;22;82630;-51
2023/10/02 02:37:32;;;;;;;4.25;2.92;;;23.50;60.70;;;;;;7674316;22;80599;-53
2023/10/02 02:40:33;;;;;;;4.57;2.60;;;23.50;60.80;;;;;;7679950;22;80209;-48
2023/10/02 02:43:33;;;;;;;4.95;2.65;;;23.50;60.80;;;;;;7678981;22;80549;-53
2023/10/02 02:46:34;;;;;;;5.85;2.83;;;23.50;60.80;;;;;;7680304;22;80573;-51
2023/10/02 02:49:48;;;;;;;3.95;2.33;;;23.50;60.80;;;;;;7677011;22;82972;-52
2023/10/02 02:53:16;;;;;;;5.43;2.70;;;23.50;60.90;;;;;;7679663;22;81459;-49
2023/10/02 02:56:16;;;;;;;4.80;2.85;;;23.50;60.70;;;;;;7680077;22;80389;-52
2023/10/02 02:59:17;;;;;;;4.38;2.53;;;23.50;60.80;;;;;;7679859;22;84854;-51
2023/10/02 03:02:22;;;;;;;4.63;2.58;;;23.50;60.80;;;;;;7674430;22;81699;-48
2023/10/02 03:05:22;;;;;;;3.92;2.38;;;23.50;60.70;;;;;;7678902;22;80837;-50
2023/10/02 03:08:23;;;;;;;4.38;2.75;;;23.50;60.80;;;;;;7678422;22;80475;-49
2023/10/02 03:11:28;;;;;;;4.68;2.67;;;23.50;60.80;;;;;;7677251;22;80551;-48
2023/10/02 03:14:29;;;;;;;5.22;2.45;;;23.50;60.80;;;;;;7678707;22;80457;-47
2023/10/02 03:17:30;;;;;;;5.35;2.90;;;23.50;60.80;;;;;;7676885;22;80110;-49
2023/10/02 03:20:30;;;;;;;7.68;2.30;;;23.50;60.70;;;;;;7676272;22;80546;-48
2023/10/02 03:23:31;;;;;;;5.07;2.72;;;23.50;60.80;;;;;;7652626;22;81358;-57
2023/10/02 03:29:36;;;;;;;6.72;2.60;;;23.50;60.90;;;;;;7680302;22;80401;-58
2023/10/02 03:32:45;;;;;;;4.45;2.80;;;23.50;60.80;;;;;;7679240;22;80848;-58
2023/10/02 03:35:56;;;;;;;4.30;2.63;;;23.50;60.80;;;;;;7679689;22;80525;-58
2023/10/02 03:38:57;;;;;;;5.50;2.88;;;23.50;60.90;;;;;;7679507;22;80487;-64
2023/10/02 03:42:01;;;;;;;6.05;2.83;;;23.40;60.90;;;;;;7679294;22;80508;-49
2023/10/02 03:45:05;;;;;;;8.95;3.05;;;23.40;61.20;;;;;;7679753;22;80763;-51
2023/10/02 03:48:07;;;;;;;6.28;3.47;;;23.40;61.00;;;;;;7677697;22;80422;-48
2023/10/02 03:51:08;;;;;;;12.48;3.10;;;23.40;61.00;;;;;;7678204;22;81222;-46
2023/10/02 03:54:17;;;;;;;5.10;2.80;;;23.40;60.80;;;;;;7647800;22;80675;-48
2023/10/02 04:00:44;;;;;;;7.05;2.92;;;23.40;61.10;;;;;;7678591;22;80582;-50
2023/10/02 04:04:05;;;;;;;6.85;2.90;;;23.40;60.60;;;;;;7678420;22;80280;-48
2023/10/02 04:07:08;;;;;;;6.07;2.97;;;23.40;60.60;;;;;;7679225;22;80007;-47
2023/10/02 04:10:09;;;;;;;7.32;3.50;;;23.40;60.70;;;;;;7641175;22;80564;-48
2023/10/02 04:13:12;;;;;;;4.18;2.55;;;23.40;61.20;;;;;;7673791;22;81148;-49
2023/10/02 04:16:28;;;;;;;5.55;3.03;;;23.40;61.40;;;;;;7650838;22;80299;-56
2023/10/02 04:19:29;;;;;;;5.65;2.78;;;23.40;61.30;;;;;;7672609;22;80104;-62
2023/10/02 04:22:35;;;;;;;7.70;3.10;;;23.50;61.50;;;;;;7676243;22;80263;-60
2023/10/02 04:25:35;;;;;;;12.02;3.53;;;23.50;61.20;;;;;;7625697;22;83880;-61
2023/10/02 04:28:49;;;;;;;6.50;3.17;;;23.40;61.20;;;;;;7678997;22;80132;-63
2023/10/02 04:32:11;;;;;;;15.57;2.90;;;23.50;61.20;;;;;;7677517;22;82092;-61
2023/10/02 04:38:49;;;;;;;10.55;3.75;;;23.50;61.30;;;;;;7678673;22;81553;-57
2023/10/02 04:42:09;;;;;;;8.23;3.25;;;23.40;61.20;;;;;;7678351;22;79950;-58
2023/10/02 04:45:20;;;;;;;6.53;3.45;;;23.40;61.30;;;;;;7679321;22;81285;-58
2023/10/02 04:48:27;;;;;;;7.85;3.28;;;23.30;61.10;;;;;;7676769;22;80940;-58
2023/10/02 04:51:28;;;;;;;9.48;3.20;;;23.20;61.20;;;;;;7675603;22;80867;-57
2023/10/02 04:54:30;;;;;;;9.77;3.92;;;23.20;61.20;;;;;;7650523;22;81769;-52
2023/10/02 04:57:34;;;;;;;7.72;2.90;;;23.10;61.20;;;;;;7678213;22;80528;-58
2023/10/02 05:00:34;;;;;;;10.02;3.95;;;23.10;61.10;;;;;;7678600;22;80649;-57
2023/10/02 05:03:49;;;;;;;10.05;3.55;;;23.10;60.60;;;;;;7677621;22;80569;-57
2023/10/02 05:06:52;;;;;;;8.82;3.80;;;23.10;60.50;;;;;;7679747;22;81459;-58
2023/10/02 05:09:53;;;;;;;9.30;3.63;;;23.00;60.50;;;;;;7679423;22;80497;-58
2023/10/02 05:12:53;;;;;;;8.50;3.75;;;23.00;60.30;;;;;;7675330;22;80303;-55
2023/10/02 05:16:07;;;;;;;12.80;4.00;;;23.00;60.20;;;;;;7674408;22;80876;-53
2023/10/02 05:19:07;;;;;;;7.25;3.45;;;23.00;60.40;;;;;;7675317;22;80820;-53
2023/10/02 05:22:08;;;;;;;8.35;3.97;;;23.00;60.30;;;;;;7674410;22;80527;-52
2023/10/02 05:25:08;;;;;;;7.70;4.00;;;23.00;60.20;;;;;;7674952;22;81591;-54
2023/10/02 05:28:10;;;;;;;5.53;3.58;;;23.00;60.90;;;;;;7675272;22;80625;-49
2023/10/02 05:31:12;;;;;;;7.68;3.15;;;22.90;60.10;;;;;;7675645;22;80780;-67
2023/10/02 05:34:22;;;;;;;8.15;3.70;;;23.00;60.20;;;;;;7676674;22;80771;-67
2023/10/02 05:37:23;;;;;;;10.90;4.43;;;22.90;60.10;;;;;;7679067;22;80392;-66
2023/10/02 05:43:24;;;;;;;12.50;4.10;;;22.90;60.10;;;;;;7678605;22;80690;-67
2023/10/02 05:46:52;;;;;;;6.47;3.55;;;22.90;60.10;;;;;;7678407;22;85923;-67
2023/10/02 05:49:47;;;;;;;8.10;3.88;;;22.90;60.10;;;;;;7677867;22;81721;-51
2023/10/02 05:52:48;;;;;;;8.98;3.80;;;22.90;60.00;;;;;;7676767;22;80393;-52
2023/10/02 05:59:08;;;;;;;6.80;3.85;;;22.90;60.00;;;;;;7678057;22;80612;-52
2023/10/02 06:02:11;;;;;;;9.27;3.80;;;22.90;60.00;;;;;;7678023;22;80471;-53
2023/10/02 06:05:12;;;;;;;9.48;3.90;;;22.80;59.90;;;;;;7678285;22;84507;-52
2023/10/02 06:08:16;;;;;;;6.88;3.85;;;22.90;59.90;;;;;;7681058;22;81294;-54
2023/10/02 06:11:25;;;;;;;6.65;3.47;;;22.80;59.80;;;;;;7680189;22;80735;-64
2023/10/02 06:14:26;;;;;;;7.63;3.65;;;22.80;59.80;;;;;;7653341;22;80867;-65
2023/10/02 06:17:32;;;;;;;9.93;3.88;;;22.80;59.90;;;;;;7680294;22;80932;-66
2023/10/02 06:20:32;;;;;;;11.82;4.65;;;22.80;59.90;;;;;;7680464;22;80839;-65
2023/10/02 06:23:39;;;;;;;9.57;3.90;;;22.80;59.90;;;;;;7679781;22;80932;-65
2023/10/02 06:26:57;;;;;;;7.93;3.70;;;22.80;59.70;;;;;;7680105;22;80352;-55
2023/10/02 06:29:58;;;;;;;10.68;4.03;;;22.80;59.80;;;;;;7680064;22;80228;-57
2023/10/02 06:32:59;;;;;;;7.20;4.03;;;22.80;59.70;;;;;;7680755;22;80138;-57
2023/10/02 06:36:03;;;;;;;8.48;4.00;;;22.80;59.70;;;;;;7653798;22;83385;-57
2023/10/02 06:39:03;;;;;;;15.70;4.53;;;22.80;59.70;;;;;;7653434;22;80241;-57
2023/10/02 06:42:04;;;;;;;10.10;4.05;;;22.80;59.70;;;;;;7680253;22;80264;-56
2023/10/02 06:45:11;;;;;;;11.52;3.20;;;22.80;59.80;;;;;;7681384;22;80779;-66
2023/10/02 06:48:20;;;;;;;5.45;3.00;;;22.80;59.80;;;;;;7680207;22;80789;-65
2023/10/02 06:51:21;;;;;;;9.10;4.63;;;22.80;59.70;;;;;;7653551;22;82617;-66
2023/10/02 06:54:22;;;;;;;7.57;4.00;;;22.90;59.70;;;;;;7678679;22;80872;-65
2023/10/02 06:57:24;;;;;;;7.63;3.60;;;22.80;59.60;;;;;;7654236;22;81807;-66
2023/10/02 07:00:35;;;;;;;8.30;4.20;;;22.90;59.60;;;;;;7679624;22;80375;-66
2023/10/02 07:03:39;;;;;;;9.00;3.60;;;22.90;59.50;;;;;;7679205;22;80163;-57
2023/10/02 07:06:39;;;;;;;9.00;4.00;;;22.90;59.40;;;;;;7680826;22;80754;-57
2023/10/02 07:09:40;;;;;;;11.30;3.40;;;22.90;59.40;;;;;;7680104;22;80783;-57
2023/10/02 07:12:41;;;;;;;9.30;3.42;;;22.90;59.40;;;;;;7679689;22;81426;-58
2023/10/02 07:15:42;;;;;;;9.80;3.60;;;22.90;59.30;;;;;;7679149;22;80549;-57
2023/10/02 07:18:49;;;;;;;4.13;2.90;;;22.90;59.40;;;;;;7680810;22;81138;-56
2023/10/02 07:21:51;;;;;;;7.47;3.65;;;22.90;59.50;;;;;;7680233;22;80416;-56
2023/10/02 07:24:52;;;;;;;5.13;3.13;;;22.90;59.50;;;;;;7680765;22;80457;-56
2023/10/02 07:27:53;;;;;;;8.82;3.53;;;23.00;59.70;;;;;;7680839;22;79936;-56
2023/10/02 07:30:53;;;;;;;6.93;3.25;;;23.00;59.70;;;;;;7652084;22;80865;-56
2023/10/02 07:33:55;;;;;;;9.25;3.63;;;23.00;59.80;;;;;;7653442;22;83437;-56
2023/10/02 07:36:57;;;;;;;8.18;3.15;;;23.00;59.90;;;;;;7679831;22;80584;-56
2023/10/02 07:39:58;;;;;;;7.20;3.10;;;23.00;59.80;;;;;;7677533;22;80585;-51
2023/10/02 07:43:00;;;;;;;9.52;3.42;;;23.00;59.90;;;;;;7679983;22;80897;-52
2023/10/02 07:46:01;;;;;;;8.50;3.20;;;23.10;59.80;;;;;;7653510;22;80555;-53
2023/10/02 07:49:03;;;;;;;10.32;3.33;;;23.10;59.80;;;;;;7651821;22;81611;-49
2023/10/02 07:52:06;;;;;;;5.22;2.85;;;23.10;59.80;;;;;;7678443;22;81297;-53
2023/10/02 07:55:10;;;;;;;6.35;3.53;;;23.10;59.80;;;;;;7679206;22;80363;-52
2023/10/02 07:58:13;;;;;;;9.35;3.38;;;23.20;59.90;;;;;;7681046;22;81153;-55
2023/10/02 08:01:14;;;;;;;7.70;3.65;;;23.20;59.90;;;;;;7679043;22;80695;-53
2023/10/02 08:04:14;;;;;;;5.88;3.35;;;23.30;60.10;;;;;;7680142;22;80026;-52
2023/10/02 08:07:16;;;;;;;9.15;3.58;;;23.30;60.00;;;;;;7678906;22;80787;-52
2023/10/02 08:10:17;;;;;;;7.28;3.35;;;23.30;60.10;;;;;;7681283;22;81406;-50
2023/10/02 08:13:17;;;;;;;4.93;2.72;;;23.40;60.30;;;;;;7679350;22;81134;-52
2023/10/02 08:16:22;;;;;;;10.90;4.05;;;23.30;60.20;;;;;;7680082;22;81244;-58
2023/10/02 08:19:22;;;;;;;11.88;3.38;;;23.40;60.40;;;;;;7679980;22;80868;-52
2023/10/02 08:22:23;;;;;;;11.20;3.90;;;23.40;60.30;;;;;;7679571;22;79977;-52
2023/10/02 08:25:23;;;;;;;9.88;3.25;;;23.40;60.30;;;;;;7680156;22;80237;-52
2023/10/02 08:28:24;;;;;;;7.20;3.22;;;23.40;60.10;;;;;;7653684;22;79936;-47
2023/10/02 08:31:27;;;;;;;8.02;3.63;;;23.40;60.10;;;;;;7679956;22;80127;-50
2023/10/02 08:34:28;;;;;;;5.72;2.88;;;23.50;60.20;;;;;;7680555;22;80465;-61
2023/10/02 08:37:29;;;;;;;6.63;3.80;;;23.50;60.30;;;;;;7677921;22;80609;-50
2023/10/02 08:40:32;;;;;;;7.07;3.50;;;23.50;60.30;;;;;;7680245;22;80939;-52
2023/10/02 08:43:41;;;;;;;7.80;3.72;;;23.60;60.20;;;;;;7678879;22;80544;-53
2023/10/02 08:46:43;;;;;;;10.88;4.13;;;23.60;60.30;;;;;;7680959;22;80989;-50
2023/10/02 08:49:47;;;;;;;7.28;3.10;;;23.70;60.90;;;;;;7679194;22;82117;-51
2023/10/02 08:52:50;;;;;;;8.25;3.10;;;23.70;61.00;;;;;;7651705;22;81334;-49
2023/10/02 09:02:16;;;;;;;6.28;3.17;;;23.70;60.80;;;;;;7678499;22;83388;-51
2023/10/02 09:05:17;;;;;;;9.00;4.30;;;23.80;60.80;;;;;;7679107;22;80844;-50
2023/10/02 09:08:21;;;;;;;7.50;3.35;;;23.80;61.30;;;;;;7678870;22;80616;-49
2023/10/02 09:11:28;;;;;;;8.40;3.70;;;23.80;60.90;;;;;;7679656;22;80323;-61
2023/10/02 09:17:33;;;;;;;6.93;3.58;;;23.90;61.50;;;;;;7680918;22;81494;-57
2023/10/02 09:20:40;;;;;;;5.55;3.25;;;24.00;61.30;;;;;;7680014;22;80642;-57
2023/10/02 09:23:49;;;;;;;9.70;3.85;;;24.00;61.20;;;;;;7680142;22;80234;-57
2023/10/02 09:26:50;;;;;;;4.95;2.83;;;24.10;61.20;;;;;;7679907;22;79883;-57
2023/10/02 09:30:15;;;;;;;6.95;3.35;;;24.00;61.30;;;;;;7679465;22;79956;-51
2023/10/02 09:33:23;;;;;;;9.13;3.80;;;24.10;60.90;;;;;;7678965;22;80253;-50
2023/10/02 09:36:36;;;;;;;6.43;3.28;;;24.10;60.70;;;;;;7679033;22;80973;-53
2023/10/02 09:39:38;;;;;;;5.95;3.42;;;24.10;60.90;;;;;;7681104;22;80686;-54
2023/10/02 09:42:39;;;;;;;7.15;3.80;;;24.10;60.90;;;;;;7680117;22;80529;-53
2023/10/02 09:45:46;;;;;;;5.97;3.63;;;24.10;60.70;;;;;;7680805;22;83941;-51
2023/10/02 09:48:52;;;;;;;8.00;4.32;;;24.10;60.70;;;;;;7679506;22;80510;-51
2023/10/02 09:55:34;;;;;;;5.50;3.50;;;24.10;60.90;;;;;;7600798;23;81355;-52
2023/10/02 09:58:34;;;;;;;8.55;3.13;;;24.10;60.70;;;;;;7601684;23;80541;-53
2023/10/02 10:01:35;;;;;;;6.65;3.72;;;24.10;61.10;;;;;;7676475;22;80719;-54
2023/10/02 10:04:42;;;;;;;7.25;2.83;;;24.10;61.00;;;;;;7680712;22;80328;-67
2023/10/02 10:07:46;;;;;;;6.60;3.80;;;24.10;61.00;;;;;;7681267;22;81242;-66
2023/10/02 10:10:49;;;;;;;5.43;3.08;;;24.10;60.90;;;;;;7681043;22;80995;-66
2023/10/02 10:13:51;;;;;;;13.55;3.00;;;24.10;61.20;;;;;;7681046;22;80304;-66
2023/10/02 10:16:52;;;;;;;7.28;3.75;;;24.10;61.10;;;;;;7681093;22;81091;-66
2023/10/02 10:20:18;;;;;;;7.07;3.30;;;24.20;61.20;;;;;;7681386;22;81533;-66
2023/10/02 10:23:19;;;;;;;7.72;3.35;;;24.20;61.00;;;;;;7679754;22;85119;-66
2023/10/02 10:26:19;;;;;;;6.93;3.15;;;24.30;61.50;;;;;;7654849;22;80446;-58
2023/10/02 10:29:22;;;;;;;4.90;3.47;;;24.40;62.10;;;;;;7680452;22;80908;-55
2023/10/02 10:32:24;;;;;;;7.00;3.97;;;24.40;62.70;;;;;;7680966;22;80673;-58
2023/10/02 10:35:25;;;;;;;6.15;3.58;;;24.50;63.40;;;;;;7680669;22;80687;-59
2023/10/02 10:38:26;;;;;;;8.07;3.60;;;24.50;64.30;;;;;;7681832;22;80793;-57
2023/10/02 10:41:26;;;;;;;8.32;3.88;;;24.50;64.40;;;;;;7680829;22;80621;-58
2023/10/02 10:44:27;;;;;;;6.78;4.03;;;24.60;64.80;;;;;;7681361;22;80622;-58
2023/10/02 10:47:35;;;;;;;5.75;3.20;;;24.60;65.00;;;;;;7680895;22;80151;-57
2023/10/02 10:50:36;;;;;;;5.88;3.08;;;24.60;64.40;;;;;;7680910;22;80517;-56
2023/10/02 10:53:41;;;;;;;8.23;4.10;;;24.70;64.60;;;;;;7680763;22;80974;-57
2023/10/02 10:56:43;;;;;;;7.30;3.30;;;24.70;64.40;;;;;;7680661;22;81465;-58
2023/10/02 10:59:45;;;;;;;5.88;2.78;;;24.70;63.80;;;;;;7679820;22;80415;-68
2023/10/02 11:02:45;;;;;;;7.22;3.58;;;24.80;64.00;;;;;;7679295;22;81589;-53
2023/10/02 11:05:46;;;;;;;5.57;3.03;;;24.80;63.60;;;;;;7679514;22;80776;-53
2023/10/02 11:08:47;;;;;;;6.25;3.25;;;24.80;63.60;;;;;;7679994;22;80653;-49
2023/10/02 11:11:51;;;;;;;5.60;3.00;;;24.80;63.30;;;;;;7653155;22;82922;-50
2023/10/02 11:14:52;;;;;;;6.28;3.50;;;24.90;63.20;;;;;;7678814;22;81193;-53
2023/10/02 11:17:52;;;;;;;4.78;2.58;;;24.90;62.70;;;;;;7679828;22;80164;-52
2023/10/02 11:20:54;;;;;;;7.93;3.15;;;24.90;62.30;;;;;;7678999;22;82010;-66
2023/10/02 11:23:55;;;;;;;4.70;2.70;;;24.90;62.40;;;;;;7680384;22;82324;-58
2023/10/02 11:26:55;;;;;;;6.30;3.42;;;24.90;62.30;;;;;;7680588;22;80694;-58
2023/10/02 11:30:02;;;;;;;6.10;3.22;;;25.00;62.40;;;;;;7680803;22;80278;-57
2023/10/02 11:33:04;;;;;;;6.72;3.10;;;24.90;62.30;;;;;;7679711;22;81296;-58
2023/10/02 11:36:11;;;;;;;6.25;3.20;;;25.00;61.90;;;;;;7681411;22;80229;-55
2023/10/02 11:39:19;;;;;;;9.15;3.38;;;25.00;62.00;;;;;;7680249;22;80375;-57
2023/10/02 11:42:20;;;;;;;5.00;2.90;;;25.00;62.20;;;;;;7680976;22;81052;-57
2023/10/02 11:45:20;;;;;;;3.67;2.55;;;24.90;61.80;;;;;;7680473;22;80089;-57
2023/10/02 11:48:24;;;;;;;5.35;3.05;;;24.90;61.60;;;;;;7654291;22;80161;-57
2023/10/02 11:51:28;;;;;;;5.35;3.13;;;24.90;61.80;;;;;;7654778;22;80833;-57
2023/10/02 11:54:29;;;;;;;12.02;3.33;;;24.80;61.40;;;;;;7680337;22;80392;-64
2023/10/02 11:57:30;;;;;;;5.43;2.92;;;24.80;61.20;;;;;;7679588;22;80526;-58
2023/10/02 12:00:31;;;;;;;5.28;3.65;;;24.90;61.20;;;;;;7679718;22;80478;-48
2023/10/02 12:03:36;;;;;;;4.80;2.85;;;24.90;61.00;;;;;;7652081;22;81369;-48
2023/10/02 12:06:38;;;;;;;5.47;3.00;;;24.90;60.80;;;;;;7679397;22;80592;-51
2023/10/02 12:09:39;;;;;;;5.30;2.47;;;24.90;61.30;;;;;;7678766;22;80415;-52
2023/10/02 12:12:39;;;;;;;3.15;2.47;;;24.90;61.10;;;;;;7651985;22;82630;-51
2023/10/02 12:15:43;;;;;;;4.53;2.80;;;24.90;61.30;;;;;;7679158;22;81367;-52
2023/10/02 12:18:44;;;;;;;6.05;3.00;;;24.80;61.00;;;;;;7679665;22;80579;-53
2023/10/02 12:21:44;;;;;;;4.45;2.75;;;24.80;61.20;;;;;;7538522;22;81636;-54
2023/10/02 12:24:46;;;;;;;6.30;3.15;;;24.90;61.50;;;;;;7533046;22;81440;-46
2023/10/02 12:27:49;;;;;;;6.90;3.10;;;24.80;61.10;;;;;;7501616;22;81984;-45
2023/10/02 12:30:50;;;;;;;4.50;2.58;;;24.80;60.80;;;;;;7529926;22;82213;-50
2023/10/02 12:33:52;;;;;;;6.43;2.83;;;24.70;60.70;;;;;;7512495;22;81607;-47
2023/10/02 12:36:54;;;;;;;7.55;2.88;;;24.70;60.50;;;;;;7496373;22;81196;-49
2023/10/02 12:39:56;;;;;;;5.20;2.75;;;24.70;60.20;;;;;;7528553;22;81657;-48
2023/10/02 12:42:56;;;;;;;7.07;3.08;;;24.70;60.20;;;;;;7524259;22;81073;-49
2023/10/02 12:45:57;;;;;;;5.93;2.88;;;24.70;60.50;;;;;;7524452;22;81303;-48
2023/10/02 12:48:57;;;;;;;5.38;2.83;;;24.70;60.30;;;;;;7523972;22;81021;-52
2023/10/02 12:51:59;;;;;;;6.03;3.28;;;24.70;60.30;;;;;;7519226;22;82127;-49
2023/10/02 12:54:59;;;;;;;4.50;2.72;;;24.70;60.60;;;;;;7520464;22;82681;-51
2023/10/02 12:58:01;;;;;;;5.35;3.17;;;24.70;60.20;;;;;;7526639;22;80216;-52
2023/10/02 13:01:02;;;;;;;6.55;3.03;;;24.70;60.00;;;;;;7519876;22;80502;-51
2023/10/02 13:04:02;;;;;;;6.70;3.40;;;24.60;59.60;;;;;;7523997;22;81691;-52
2023/10/02 13:07:05;;;;;;;6.70;3.08;;;24.60;59.60;;;;;;7520549;22;80986;-51
2023/10/02 13:10:06;;;;;;;5.40;2.88;;;24.60;60.10;;;;;;7524074;22;82200;-54
2023/10/02 13:13:07;;;;;;;4.40;3.00;;;24.70;60.10;;;;;;7525721;22;81507;-52
2023/10/02 13:16:07;;;;;;;6.88;2.95;;;24.70;60.70;;;;;;7523022;22;80660;-51
2023/10/02 13:19:12;;;;;;;6.70;3.13;;;24.70;60.80;;;;;;7530426;22;81817;-54
2023/10/02 13:22:12;;;;;;;4.85;2.90;;;24.80;61.10;;;;;;7526846;22;81995;-52
2023/10/02 13:25:13;;;;;;;5.57;2.42;;;24.90;61.10;;;;;;7526465;22;80505;-52
2023/10/02 13:28:14;;;;;;;4.78;2.58;;;24.90;60.90;;;;;;7531574;22;82153;-50
2023/10/02 13:31:16;;;;;;;4.35;2.75;;;24.90;60.70;;;;;;7512881;22;80708;-46
2023/10/02 13:34:17;;;;;;;5.55;3.13;;;24.90;60.40;;;;;;7522861;22;80335;-50
2023/10/02 13:37:17;;;;;;;4.85;3.30;;;24.90;60.60;;;;;;7503195;22;83112;-51
2023/10/02 13:40:31;;;;;;;8.05;3.47;;;24.90;60.20;;;;;;7526065;22;81124;-48
2023/10/02 13:43:31;;;;;;;4.32;2.63;;;24.90;60.30;;;;;;7530082;22;82193;-47
2023/10/02 13:46:38;;;;;;;4.95;3.10;;;24.90;60.20;;;;;;7527883;22;80300;-70
2023/10/02 13:49:38;;;;;;;4.78;2.88;;;24.90;59.90;;;;;;7529073;22;82274;-53
2023/10/02 13:52:39;;;;;;;7.53;3.47;;;24.90;60.20;;;;;;7526368;22;80398;-52
2023/10/02 13:55:39;;;;;;;6.10;3.10;;;25.00;60.30;;;;;;7530492;22;81997;-52
2023/10/02 13:58:40;;;;;;;5.38;2.50;;;25.00;60.70;;;;;;7526120;22;81058;-51
2023/10/02 14:01:40;;;;;;;4.05;2.95;;;25.00;59.90;;;;;;7608199;22;80481;-53
2023/10/02 14:04:41;;;;;;;6.30;2.70;;;25.10;60.60;;;;;;7673178;22;80305;-49
2023/10/02 14:07:42;;;;;;;5.80;3.38;;;25.10;59.90;;;;;;7674989;22;80419;-70
2023/10/02 14:10:43;;;;;;;6.55;3.30;;;25.10;60.20;;;;;;7678009;22;80895;-70
2023/10/02 14:13:48;;;;;;;6.32;2.70;;;25.10;59.20;;;;;;7648811;22;81674;-70
2023/10/02 14:16:48;;;;;;;4.28;2.72;;;25.10;59.90;;;;;;7679957;22;81084;-67
2023/10/02 14:19:48;;;;;;;5.20;2.28;;;25.10;59.00;;;;;;7679197;22;80359;-69
2023/10/02 14:22:50;;;;;;;3.55;2.22;;;25.10;58.70;;;;;;7681370;22;80071;-58
2023/10/02 14:25:51;;;;;;;5.35;2.58;;;25.20;59.30;;;;;;7681192;22;80860;-58
2023/10/02 14:28:51;;;;;;;4.10;2.30;;;25.10;59.00;;;;;;7681566;22;80538;-57
2023/10/02 14:31:53;;;;;;;4.07;2.55;;;25.10;58.60;;;;;;7681613;22;80298;-57
2023/10/02 14:34:54;;;;;;;4.80;2.72;;;25.10;59.00;;;;;;7681615;22;80577;-57
2023/10/02 14:37:55;;;;;;;5.45;2.60;;;25.20;58.60;;;;;;7681113;22;80913;-58
2023/10/02 14:40:56;;;;;;;6.53;2.60;;;25.10;59.10;;;;;;7654839;22;81675;-54
2023/10/02 14:43:56;;;;;;;3.65;1.95;;;25.10;58.70;;;;;;7676594;22;80981;-54
2023/10/02 14:47:00;;;;;;;4.68;2.08;;;25.10;58.90;;;;;;7650334;22;80490;-53
2023/10/02 14:50:00;;;;;;;4.05;1.98;;;25.00;58.80;;;;;;7677533;22;80626;-51
2023/10/02 14:53:01;;;;;;;5.57;2.58;;;25.00;58.70;;;;;;7677523;22;80795;-54
2023/10/02 14:56:02;;;;;;;4.78;1.98;;;25.00;58.30;;;;;;7666290;22;81100;-54
2023/10/02 14:59:04;;;;;;;13.93;2.58;;;24.90;58.70;;;;;;7677172;22;80727;-58
2023/10/02 15:02:05;;;;;;;12.02;3.05;;;24.90;59.20;;;;;;7673322;22;80173;-50
2023/10/02 15:05:05;;;;;;;4.65;2.20;;;24.90;59.50;;;;;;7675923;22;81002;-54
2023/10/02 15:08:10;;;;;;;5.20;2.53;;;24.90;59.40;;;;;;7674949;22;81423;-53
2023/10/02 15:11:13;;;;;;;4.30;2.20;;;25.00;59.40;;;;;;7672534;22;85379;-51
2023/10/02 15:14:14;;;;;;;5.28;2.35;;;24.90;59.60;;;;;;7660401;22;80889;-51
2023/10/02 15:17:15;;;;;;;3.90;2.05;;;25.00;59.40;;;;;;7671327;22;80888;-52
2023/10/02 15:20:16;;;;;;;5.30;2.40;;;25.00;59.20;;;;;;7670601;22;82278;-53
2023/10/02 15:23:18;;;;;;;10.27;2.83;;;25.00;59.50;;;;;;7673795;22;81141;-55
2023/10/02 15:26:18;;;;;;;5.97;2.78;;;25.00;59.40;;;;;;7675154;22;80745;-55
2023/10/02 15:29:19;;;;;;;5.28;2.65;;;24.90;59.40;;;;;;7674820;22;80905;-57
2023/10/02 15:32:20;;;;;;;7.45;3.03;;;24.90;59.50;;;;;;7675340;22;80581;-57
2023/10/02 15:35:21;;;;;;;7.15;2.92;;;24.90;59.80;;;;;;7671492;22;81964;-56
2023/10/02 15:38:21;;;;;;;6.93;2.75;;;24.90;59.70;;;;;;7679174;22;80368;-67
2023/10/02 15:41:21;;;;;;;6.93;2.65;;;24.90;59.80;;;;;;7681597;22;80369;-67
2023/10/02 15:44:22;;;;;;;4.78;2.50;;;24.90;59.90;;;;;;7682811;22;80761;-64
2023/10/02 15:47:23;;;;;;;5.65;2.80;;;24.80;60.20;;;;;;7677558;22;80965;-66
2023/10/02 15:50:24;;;;;;;8.20;2.67;;;24.80;60.70;;;;;;7676610;22;80293;-67
2023/10/02 15:53:24;;;;;;;7.97;3.05;;;24.70;60.80;;;;;;7676174;22;81555;-59
2023/10/02 15:56:27;;;;;;;7.50;2.75;;;24.70;61.20;;;;;;7657858;22;81283;-52
2023/10/02 15:59:28;;;;;;;8.23;2.90;;;24.60;61.20;;;;;;7677312;22;80178;-51
2023/10/02 16:02:28;;;;;;;7.45;3.50;;;24.50;61.40;;;;;;7675193;22;80301;-54
2023/10/02 16:05:29;;;;;;;10.85;3.08;;;24.50;61.40;;;;;;7651052;22;83616;-49
2023/10/02 16:08:29;;;;;;;8.25;3.15;;;24.40;61.60;;;;;;7642087;22;81075;-53
2023/10/02 16:11:30;;;;;;;5.90;3.17;;;24.30;62.00;;;;;;7643596;22;80910;-53
2023/10/02 16:14:31;;;;;;;6.90;3.28;;;24.40;62.30;;;;;;7623349;22;83336;-54
2023/10/02 16:17:32;;;;;;;7.78;4.07;;;24.40;62.10;;;;;;7676667;22;80382;-57
2023/10/02 16:20:35;;;;;;;10.98;4.25;;;24.40;62.10;;;;;;7677573;22;81316;-53